createdAt,value
2023-04-08T00:00:06.789Z,99258.91
2023-04-08T00:02:39.133Z,99257.25
2023-04-08T00:05:10.723Z,99256.81
2023-04-08T00:07:39.503Z,99257.03
2023-04-08T00:10:10.314Z,99253.53
2023-04-08T00:12:39.140Z,99252.75
2023-04-08T00:15:08.917Z,99244.56
2023-04-08T00:17:37.587Z,99251.50
2023-04-08T00:20:09.294Z,99242.69
2023-04-08T00:22:38.143Z,99244.53
2023-04-08T00:25:09.619Z,99244.34
2023-04-08T00:27:38.299Z,99240.63
2023-04-08T00:30:08.884Z,99247.41
2023-04-08T00:32:38.051Z,99248.66
2023-04-08T00:35:09.480Z,99254.00
2023-04-08T00:37:38.168Z,99250.53
2023-04-08T00:40:08.364Z,99254.41
2023-04-08T00:42:37.046Z,99253.19
2023-04-08T00:45:07.305Z,99252.38
2023-04-08T00:47:37.973Z,99250.53
2023-04-08T00:50:12.898Z,99251.34
2023-04-08T00:52:41.596Z,99249.50
2023-04-08T00:55:10.507Z,99246.19
2023-04-08T00:57:39.339Z,99246.03
2023-04-08T01:00:09.939Z,99240.09
2023-04-08T01:02:49.231Z,99245.41
2023-04-08T01:05:30.423Z,99239.88
2023-04-08T01:08:06.410Z,99242.53
2023-04-08T01:10:41.612Z,99237.59
2023-04-08T01:13:15.710Z,99240.06
2023-04-08T01:15:46.364Z,99240.06
2023-04-08T01:18:18.104Z,99244.97
2023-04-08T01:20:50.987Z,99246.41
2023-04-08T01:23:34.519Z,99241.31
2023-04-08T01:26:05.276Z,99236.78
2023-04-08T01:28:38.167Z,99239.25
2023-04-08T01:31:08.681Z,99229.44
2023-04-08T01:33:38.793Z,99239.88
2023-04-08T01:36:10.663Z,99242.13
2023-04-08T01:38:41.157Z,99236.41
2023-04-08T01:41:13.393Z,99239.25
2023-04-08T01:43:44.770Z,99229.84
2023-04-08T01:46:16.550Z,99233.53
2023-04-08T01:48:47.204Z,99235.38
2023-04-08T01:51:18.914Z,99237.63
2023-04-08T01:53:47.756Z,99239.66
2023-04-08T01:56:18.972Z,99245.81
2023-04-08T01:58:54.052Z,99239.88
2023-04-08T02:01:28.601Z,99240.69
2023-04-08T02:04:00.680Z,99232.69
2023-04-08T02:06:31.224Z,99241.69
2023-04-08T02:09:02.304Z,99238.03
2023-04-08T02:11:32.598Z,99235.38
2023-04-08T02:14:01.512Z,99236.19
2023-04-08T02:16:40.768Z,99241.09
2023-04-08T02:19:17.444Z,99241.91
2023-04-08T02:21:51.570Z,99246.19
2023-04-08T02:24:22.598Z,99241.66
2023-04-08T02:26:53.816Z,99248.25
2023-04-08T02:29:23.583Z,99252.16
2023-04-08T02:31:57.362Z,99257.47
2023-04-08T02:34:27.228Z,99257.06
2023-04-08T02:36:58.414Z,99256.03
2023-04-08T02:39:33.522Z,99255.22
2023-04-08T02:42:03.712Z,99250.09
2023-04-08T02:44:32.513Z,99249.88
2023-04-08T02:47:05.205Z,99255.22
2023-04-08T02:49:37.157Z,99260.50
2023-04-08T02:52:06.043Z,99267.47
2023-04-08T02:54:34.722Z,99260.13
2023-04-08T02:57:07.806Z,99263.00
2023-04-08T02:59:37.852Z,99260.72
2023-04-08T03:02:08.769Z,99264.81
2023-04-08T03:04:37.575Z,99266.88
2023-04-08T03:07:08.502Z,99258.44
2023-04-08T03:09:39.663Z,99259.69
2023-04-08T03:12:09.848Z,99261.75
2023-04-08T03:14:38.680Z,99273.00
2023-04-08T03:17:07.399Z,99271.59
2023-04-08T03:19:36.181Z,99268.94
2023-04-08T03:22:04.850Z,99269.53
2023-04-08T03:24:33.552Z,99256.44
2023-04-08T03:27:02.344Z,99265.00
2023-04-08T03:29:32.435Z,99262.94
2023-04-08T03:32:01.629Z,99257.84
2023-04-08T03:34:30.368Z,99258.22
2023-04-08T03:36:59.093Z,99258.88
2023-04-08T03:39:27.856Z,99258.28
2023-04-08T03:41:56.516Z,99262.16
2023-04-08T03:44:25.226Z,99259.72
2023-04-08T03:46:55.432Z,99266.66
2023-04-08T03:49:24.201Z,99265.84
2023-04-08T03:51:52.932Z,99260.94
2023-04-08T03:54:21.739Z,99262.97
2023-04-08T03:56:51.707Z,99259.91
2023-04-08T03:59:20.492Z,99260.09
2023-04-08T04:01:49.277Z,99263.38
2023-04-08T04:04:19.472Z,99264.41
2023-04-08T04:06:48.732Z,99269.91
2023-04-08T04:09:17.925Z,99262.94
2023-04-08T04:11:46.591Z,99260.50
2023-04-08T04:14:15.551Z,99267.66
2023-04-08T04:16:44.315Z,99271.94
2023-04-08T04:19:13.190Z,99273.19
2023-04-08T04:21:43.419Z,99270.72
2023-04-08T04:24:13.488Z,99285.06
2023-04-08T04:26:42.866Z,99279.50
2023-04-08T04:29:11.610Z,99279.94
2023-04-08T04:31:40.890Z,99285.63
2023-04-08T04:34:09.905Z,99283.63
2023-04-08T04:36:42.132Z,99278.50
2023-04-08T04:39:12.994Z,99288.28
2023-04-08T04:41:44.590Z,99281.97
2023-04-08T04:44:13.460Z,99284.63
2023-04-08T04:46:42.279Z,99289.16
2023-04-08T04:49:10.985Z,99292.44
2023-04-08T04:51:39.681Z,99288.13
2023-04-08T04:54:11.939Z,99293.69
2023-04-08T04:56:40.787Z,99296.50
2023-04-08T04:59:09.809Z,99299.38
2023-04-08T05:01:41.010Z,99298.81
2023-04-08T05:04:09.876Z,99298.00
2023-04-08T05:06:38.521Z,99300.25
2023-04-08T05:09:07.314Z,99299.03
2023-04-08T05:11:37.403Z,99305.59
2023-04-08T05:14:07.955Z,99315.00
2023-04-08T05:16:37.018Z,99320.09
2023-04-08T05:19:05.817Z,99318.66
2023-04-08T05:21:35.011Z,99310.47
2023-04-08T05:24:03.945Z,99311.88
2023-04-08T05:26:33.995Z,99322.78
2023-04-08T05:29:06.834Z,99333.41
2023-04-08T05:31:35.539Z,99328.53
2023-04-08T05:34:04.415Z,99328.91
2023-04-08T05:36:33.209Z,99332.00
2023-04-08T05:39:03.292Z,99331.81
2023-04-08T05:41:33.577Z,99337.13
2023-04-08T05:44:03.665Z,99337.56
2023-04-08T05:46:32.396Z,99339.59
2023-04-08T05:49:01.462Z,99328.13
2023-04-08T05:51:30.352Z,99332.16
2023-04-08T05:53:59.021Z,99334.22
2023-04-08T05:56:27.676Z,99333.84
2023-04-08T05:58:56.397Z,99341.19
2023-04-08T06:01:26.731Z,99331.78
2023-04-08T06:03:56.308Z,99335.88
2023-04-08T06:06:26.142Z,99336.69
2023-04-08T06:08:55.008Z,99344.88
2023-04-08T06:11:23.811Z,99348.38
2023-04-08T06:13:52.835Z,99352.28
2023-04-08T06:16:21.790Z,99353.09
2023-04-08T06:18:53.481Z,99352.50
2023-04-08T06:21:23.802Z,99351.03
2023-04-08T06:23:57.854Z,99363.34
2023-04-08T06:26:28.424Z,99356.38
2023-04-08T06:28:58.574Z,99357.81
2023-04-08T06:31:27.453Z,99360.50
2023-04-08T06:33:58.407Z,99363.38
2023-04-08T06:36:28.499Z,99365.59
2023-04-08T06:39:27.299Z,99369.06
2023-04-08T06:41:59.420Z,99365.78
2023-04-08T06:44:38.349Z,99366.63
2023-04-08T06:47:13.260Z,99375.66
2023-04-08T06:49:43.281Z,99377.28
2023-04-08T06:52:14.717Z,99383.63
2023-04-08T06:54:43.889Z,99383.63
2023-04-08T06:57:12.513Z,99385.88
2023-04-08T06:59:41.221Z,99384.69
2023-04-08T07:02:09.936Z,99392.03
2023-04-08T07:04:38.655Z,99405.53
2023-04-08T07:07:09.687Z,99392.84
2023-04-08T07:09:38.866Z,99393.88
2023-04-08T07:12:07.834Z,99405.16
2023-04-08T07:14:37.561Z,99400.22
2023-04-08T07:17:07.444Z,99401.47
2023-04-08T07:19:36.212Z,99402.91
2023-04-08T07:22:04.932Z,99400.09
2023-04-08T07:24:35.077Z,99407.06
2023-04-08T07:27:03.766Z,99407.66
2023-04-08T07:29:34.516Z,99411.16
2023-04-08T07:32:03.578Z,99415.28
2023-04-08T07:34:32.293Z,99422.63
2023-04-08T07:37:02.988Z,99423.66
2023-04-08T07:39:31.764Z,99424.09
2023-04-08T07:42:02.077Z,99431.44
2023-04-08T07:44:30.929Z,99427.13
2023-04-08T07:46:59.622Z,99429.00
2023-04-08T07:49:28.372Z,99435.56
2023-04-08T07:51:57.618Z,99436.38
2023-04-08T07:54:26.397Z,99434.13
2023-04-08T07:56:55.182Z,99436.16
2023-04-08T07:59:25.478Z,99439.25
2023-04-08T08:01:55.467Z,99447.44
2023-04-08T08:04:25.963Z,99448.91
2023-04-08T08:06:54.937Z,99449.53
2023-04-08T08:09:26.313Z,99452.81
2023-04-08T08:11:54.999Z,99452.41
2023-04-08T08:14:26.774Z,99457.75
2023-04-08T08:16:55.831Z,99450.56
2023-04-08T08:19:24.629Z,99453.28
2023-04-08T08:21:56.242Z,99462.69
2023-04-08T08:24:26.098Z,99467.22
2023-04-08T08:26:54.912Z,99466.41
2023-04-08T08:29:25.102Z,99465.78
2023-04-08T08:31:53.791Z,99471.72
2023-04-08T08:34:22.480Z,99474.19
2023-04-08T08:36:51.206Z,99468.84
2023-04-08T08:39:19.976Z,99469.06
2023-04-08T08:41:48.830Z,99474.59
2023-04-08T08:44:17.654Z,99472.16
2023-04-08T08:46:49.483Z,99478.69
2023-04-08T08:49:18.295Z,99483.03
2023-04-08T08:51:49.197Z,99481.19
2023-04-08T08:54:18.091Z,99488.75
2023-04-08T08:56:51.900Z,99489.78
2023-04-08T08:59:20.709Z,99484.84
2023-04-08T09:01:50.967Z,99495.72
2023-04-08T09:04:22.828Z,99499.63
2023-04-08T09:07:10.782Z,99502.09
2023-04-08T09:09:58.683Z,99511.13
2023-04-08T09:12:28.657Z,99513.19
2023-04-08T09:15:08.771Z,99521.41
2023-04-08T09:17:41.498Z,99524.88
2023-04-08T09:20:12.784Z,99526.75
2023-04-08T09:23:02.298Z,99527.94
2023-04-08T09:25:33.315Z,99531.66
2023-04-08T09:28:03.052Z,99534.94
2023-04-08T09:30:34.882Z,99534.09
2023-04-08T09:33:07.558Z,99541.28
2023-04-08T09:35:37.212Z,99533.06
2023-04-08T09:38:06.126Z,99535.13
2023-04-08T09:40:36.898Z,99537.41
2023-04-08T09:43:10.578Z,99536.16
2023-04-08T09:45:44.100Z,99540.69
2023-04-08T09:48:19.569Z,99540.88
2023-04-08T09:50:53.447Z,99538.03
2023-04-08T09:53:35.618Z,99532.50
2023-04-08T09:56:11.643Z,99544.81
2023-04-08T09:58:47.376Z,99546.88
2023-04-08T10:01:22.974Z,99533.31
2023-04-08T10:03:58.255Z,99538.22
2023-04-08T10:06:32.787Z,99537.75
2023-04-08T10:09:04.403Z,99538.31
2023-04-08T10:11:34.990Z,99539.53
2023-04-08T10:14:04.147Z,99540.94
2023-04-08T10:16:36.222Z,99536.41
2023-04-08T10:19:43.184Z,99553.47
2023-04-08T10:22:48.679Z,99547.53
2023-04-08T10:25:34.575Z,99548.38
2023-04-08T10:28:29.969Z,99549.59
2023-04-08T10:30:59.268Z,99554.72
2023-04-08T10:33:39.233Z,99552.69
2023-04-08T10:36:15.481Z,99549.66
2023-04-08T10:38:44.623Z,99556.63
2023-04-08T10:41:21.875Z,99550.69
2023-04-08T10:43:51.964Z,99554.75
2023-04-08T10:46:21.852Z,99552.72
2023-04-08T10:49:02.724Z,99551.28
2023-04-08T10:51:35.220Z,99558.69
2023-04-08T10:54:08.644Z,99558.47
2023-04-08T10:56:38.985Z,99561.97
2023-04-08T10:59:07.804Z,99557.88
2023-04-08T11:01:45.307Z,99555.81
2023-04-08T11:04:17.237Z,99557.06
2023-04-08T11:06:48.732Z,99553.34
2023-04-08T11:09:18.337Z,99550.44
2023-04-08T11:11:48.205Z,99556.59
2023-04-08T11:14:22.120Z,99548.59
2023-04-08T11:16:53.201Z,99549.97
2023-04-08T11:19:22.945Z,99552.91
2023-04-08T11:21:53.186Z,99546.22
2023-04-08T11:24:23.843Z,99553.00
2023-04-08T11:26:52.783Z,99560.94
2023-04-08T11:29:22.719Z,99560.72
2023-04-08T11:31:52.097Z,99565.09
2023-04-08T11:34:25.792Z,99569.88
2023-04-08T11:36:58.536Z,99572.13
2023-04-08T11:39:27.332Z,99572.13
2023-04-08T11:41:57.533Z,99568.09
2023-04-08T11:44:33.708Z,99574.44
2023-04-08T11:47:03.112Z,99578.59
2023-04-08T11:49:46.308Z,99573.25
2023-04-08T11:52:16.799Z,99580.84
2023-04-08T11:54:46.268Z,99575.91
2023-04-08T11:57:16.849Z,99579.41
2023-04-08T11:59:46.000Z,99582.09
2023-04-08T12:02:14.946Z,99573.44
2023-04-08T12:04:43.677Z,99577.59
2023-04-08T12:07:12.315Z,99578.84
2023-04-08T12:09:42.857Z,99568.94
2023-04-08T12:12:11.592Z,99582.50
2023-04-08T12:14:40.422Z,99577.75
2023-04-08T12:17:09.393Z,99583.84
2023-04-08T12:19:38.613Z,99581.56
2023-04-08T12:22:07.506Z,99586.91
2023-04-08T12:24:36.211Z,99585.25
2023-04-08T12:27:07.123Z,99593.88
2023-04-08T12:29:36.032Z,99588.91
2023-04-08T12:32:06.081Z,99595.13
2023-04-08T12:34:35.350Z,99594.25
2023-04-08T12:37:04.235Z,99600.25
2023-04-08T12:39:34.088Z,99594.66
2023-04-08T12:42:03.217Z,99594.59
2023-04-08T12:44:33.528Z,99593.78
2023-04-08T12:47:02.469Z,99592.97
2023-04-08T12:49:39.564Z,99597.91
2023-04-08T12:52:15.325Z,99606.66
2023-04-08T12:54:44.097Z,99606.47
2023-04-08T12:57:12.926Z,99602.97
2023-04-08T12:59:42.946Z,99605.88
2023-04-08T13:02:11.672Z,99609.44
2023-04-08T13:04:40.675Z,99608.19
2023-04-08T13:07:09.452Z,99608.00
2023-04-08T13:09:38.148Z,99605.16
2023-04-08T13:12:07.078Z,99613.16
2023-04-08T13:14:36.251Z,99608.44
2023-04-08T13:17:10.823Z,99624.06
2023-04-08T13:19:39.881Z,99613.78
2023-04-08T13:22:08.604Z,99615.44
2023-04-08T13:24:37.619Z,99620.16
2023-04-08T13:27:07.295Z,99620.34
2023-04-08T13:29:36.061Z,99620.78
2023-04-08T13:32:06.381Z,99626.34
2023-04-08T13:34:35.180Z,99624.88
2023-04-08T13:37:04.362Z,99626.94
2023-04-08T13:39:33.233Z,99625.28
2023-04-08T13:42:02.903Z,99629.81
2023-04-08T13:44:33.288Z,99625.88
2023-04-08T13:47:02.369Z,99631.44
2023-04-08T13:49:32.978Z,99625.28
2023-04-08T13:52:01.900Z,99626.09
2023-04-08T13:54:31.115Z,99620.75
2023-04-08T13:56:59.991Z,99617.41
2023-04-08T13:59:31.214Z,99621.28
2023-04-08T14:02:00.272Z,99630.28
2023-04-08T14:04:29.252Z,99626.09
2023-04-08T14:07:01.540Z,99619.25
2023-04-08T14:09:31.485Z,99626.28
2023-04-08T14:12:00.175Z,99628.53
2023-04-08T14:14:28.849Z,99629.97
2023-04-08T14:16:57.716Z,99625.81
2023-04-08T14:19:26.727Z,99637.97
2023-04-08T14:21:55.550Z,99636.13
2023-04-08T14:24:25.715Z,99635.34
2023-04-08T14:26:54.626Z,99633.75
2023-04-08T14:29:26.521Z,99639.06
2023-04-08T14:31:56.921Z,99640.56
2023-04-08T14:34:28.400Z,99639.59
2023-04-08T14:36:57.149Z,99649.25
2023-04-08T14:39:29.971Z,99646.16
2023-04-08T14:41:58.656Z,99642.72
2023-04-08T14:44:27.649Z,99652.38
2023-04-08T14:46:57.280Z,99644.16
2023-04-08T14:49:26.058Z,99649.91
2023-04-08T14:51:55.171Z,99641.72
2023-04-08T14:54:23.943Z,99647.47
2023-04-08T14:56:54.206Z,99649.94
2023-04-08T14:59:22.956Z,99647.25
2023-04-08T15:01:53.871Z,99646.88
2023-04-08T15:04:23.666Z,99653.25
2023-04-08T15:06:54.162Z,99654.25
2023-04-08T15:09:23.769Z,99650.75
2023-04-08T15:11:54.269Z,99656.94
2023-04-08T15:14:23.134Z,99655.69
2023-04-08T15:16:52.181Z,99661.03
2023-04-08T15:19:21.377Z,99659.81
2023-04-08T15:21:50.346Z,99668.25
2023-04-08T15:24:20.249Z,99661.06
2023-04-08T15:26:49.346Z,99668.44
2023-04-08T15:29:22.007Z,99665.16
2023-04-08T15:31:53.942Z,99666.78
2023-04-08T15:34:22.750Z,99662.69
2023-04-08T15:36:52.574Z,99669.84
2023-04-08T15:39:22.534Z,99669.25
2023-04-08T15:41:51.439Z,99680.34
2023-04-08T15:44:22.540Z,99684.06
2023-04-08T15:46:52.657Z,99674.41
2023-04-08T15:49:25.458Z,99677.91
2023-04-08T15:51:54.306Z,99674.59
2023-04-08T15:54:22.949Z,99685.69
2023-04-08T15:56:51.963Z,99688.78
2023-04-08T15:59:48.013Z,99686.72
2023-04-08T16:02:16.930Z,99685.28
2023-04-08T16:04:46.365Z,99693.91
2023-04-08T16:07:24.566Z,99689.63
2023-04-08T16:10:18.989Z,99691.03
2023-04-08T16:13:26.776Z,99703.38
2023-04-08T16:15:57.275Z,99701.13
2023-04-08T16:18:26.632Z,99706.84
2023-04-08T16:20:55.777Z,99703.97
2023-04-08T16:23:24.902Z,99708.91
2023-04-08T16:30:48.079Z,99707.44
2023-04-08T16:33:42.008Z,99714.84
2023-04-08T16:36:38.032Z,99706.22
2023-04-08T16:39:06.909Z,99719.38
2023-04-08T16:41:36.758Z,99709.91
2023-04-08T16:44:05.665Z,99720.78
2023-04-08T16:46:35.011Z,99716.47
2023-04-08T16:49:05.648Z,99723.66
2023-04-08T16:51:34.658Z,99725.31
2023-04-08T16:54:04.594Z,99722.03
2023-04-08T16:56:33.851Z,99724.28
2023-04-08T16:59:03.139Z,99734.13
2023-04-08T17:01:32.545Z,99735.38
2023-04-08T17:04:01.814Z,99735.72
2023-04-08T17:06:34.691Z,99737.56
2023-04-08T17:09:04.136Z,99736.56
2023-04-08T17:11:33.166Z,99742.97
2023-04-08T17:14:02.048Z,99741.31
2023-04-08T17:16:31.264Z,99746.38
2023-04-08T17:19:00.070Z,99757.88
2023-04-08T17:21:29.482Z,99756.25
2023-04-08T17:23:59.702Z,99758.31
2023-04-08T17:26:28.440Z,99762.25
2023-04-08T17:28:57.414Z,99759.78
2023-04-08T17:31:26.640Z,99770.69
2023-04-08T17:33:56.133Z,99769.03
2023-04-08T17:36:25.047Z,99777.81
2023-04-08T17:38:53.705Z,99773.50
2023-04-08T17:41:38.132Z,99775.75
2023-04-08T17:44:15.338Z,99774.72
2023-04-08T17:46:45.262Z,99780.84
2023-04-08T17:49:35.638Z,99782.06
2023-04-08T17:52:10.294Z,99780.59
2023-04-08T17:55:03.681Z,99789.44
2023-04-08T17:58:27.949Z,99785.53
2023-04-08T18:01:10.419Z,99791.47
2023-04-08T18:03:44.902Z,99798.41
2023-04-08T18:06:19.151Z,99804.53
2023-04-08T18:08:48.096Z,99805.31
2023-04-08T18:11:16.980Z,99816.97
2023-04-08T18:13:48.899Z,99815.09
2023-04-08T18:16:23.810Z,99819.28
2023-04-08T18:18:56.262Z,99826.00
2023-04-08T18:21:27.314Z,99827.59
2023-04-08T18:24:23.289Z,99832.88
2023-04-08T18:27:04.347Z,99831.50
2023-04-08T18:30:57.171Z,99845.34
2023-04-08T18:33:31.837Z,99835.06
2023-04-08T18:36:24.184Z,99842.28
2023-04-08T18:38:53.299Z,99843.13
2023-04-08T18:41:25.112Z,99847.50
2023-04-08T18:43:54.019Z,99849.59
2023-04-08T18:46:51.724Z,99847.34
2023-04-08T18:49:25.807Z,99844.31
2023-04-08T18:52:02.345Z,99852.16
2023-04-08T18:55:24.827Z,99852.81
2023-04-08T18:57:53.783Z,99857.22
2023-04-08T19:00:23.309Z,99862.75
2023-04-08T19:03:13.861Z,99863.97
2023-04-08T19:05:44.199Z,99862.09
2023-04-08T19:08:15.540Z,99867.41
2023-04-08T19:10:59.948Z,99869.44
2023-04-08T19:13:37.268Z,99873.94
2023-04-08T19:16:37.927Z,99876.34
2023-04-08T19:19:10.344Z,99866.84
2023-04-08T19:22:07.877Z,99868.16
2023-04-08T19:24:49.324Z,99878.44
2023-04-08T19:32:06.190Z,99872.09
2023-04-08T19:34:49.055Z,99873.50
2023-04-08T19:37:40.624Z,99867.22
2023-04-08T19:40:40.588Z,99875.88
2023-04-08T19:43:37.194Z,99873.28
2023-04-08T19:47:33.733Z,99869.59
2023-04-08T20:11:04.600Z,99886.69
2023-04-08T20:13:45.165Z,99889.59
2023-04-08T20:16:24.899Z,99882.44
2023-04-08T20:19:17.819Z,99886.34
2023-04-08T20:21:54.112Z,99885.59
2023-04-08T20:24:26.630Z,99891.75
2023-04-08T20:27:08.110Z,99894.44
2023-04-08T20:29:55.817Z,99901.22
2023-04-08T20:32:26.794Z,99897.66
2023-04-08T20:35:03.560Z,99886.47
2023-04-08T20:37:51.460Z,99891.41
2023-04-08T20:40:24.936Z,99895.06
2023-04-08T20:42:56.260Z,99892.75
2023-04-08T20:45:39.173Z,99892.94
2023-04-08T20:48:14.976Z,99889.44
2023-04-08T20:50:51.059Z,99886.91
2023-04-08T20:53:24.219Z,99884.38
2023-04-08T20:56:23.762Z,99897.34
2023-04-08T20:59:00.533Z,99893.97
2023-04-08T21:01:45.848Z,99890.06
2023-04-08T21:04:36.860Z,99889.13
2023-04-08T21:07:17.340Z,99898.00
2023-04-08T21:09:50.301Z,99892.34
2023-04-08T21:12:20.170Z,99889.66
2023-04-08T21:14:52.319Z,99888.53
2023-04-08T21:17:26.447Z,99899.00
2023-04-08T21:20:07.032Z,99890.03
2023-04-08T21:22:47.731Z,99901.75
2023-04-08T21:25:19.721Z,99915.44
2023-04-08T21:27:50.238Z,99915.88
2023-04-08T21:30:27.536Z,99923.13
2023-04-08T21:32:58.409Z,99921.19
2023-04-08T21:35:29.534Z,99927.09
2023-04-08T21:38:03.108Z,99920.16
2023-04-08T21:40:32.061Z,99903.66
2023-04-08T21:43:00.826Z,99912.28
2023-04-08T21:45:30.941Z,99917.53
2023-04-08T21:47:59.802Z,99936.22
2023-04-08T21:50:28.644Z,99935.88
2023-04-08T21:52:57.483Z,99935.41
2023-04-08T21:55:27.196Z,99930.66
2023-04-08T21:57:56.357Z,99926.84
2023-04-08T22:00:25.225Z,99935.63
2023-04-08T22:02:55.490Z,99927.81
2023-04-08T22:05:36.933Z,99921.06
2023-04-08T22:08:06.166Z,99922.03
2023-04-08T22:10:34.967Z,99927.50
2023-04-08T22:13:03.846Z,99917.59
2023-04-08T22:15:32.570Z,99917.75
2023-04-08T22:18:02.855Z,99912.44
2023-04-08T22:20:31.916Z,99915.09
2023-04-08T22:23:00.792Z,99922.22
2023-04-08T22:25:29.619Z,99910.59
2023-04-08T22:27:58.606Z,99912.94
2023-04-08T22:30:27.343Z,99910.97
2023-04-08T22:32:56.185Z,99910.47
2023-04-08T22:35:26.506Z,99907.66
2023-04-08T22:37:55.413Z,99914.44
2023-04-08T22:40:24.670Z,99910.28
2023-04-08T22:42:54.792Z,99908.66
2023-04-08T22:46:15.995Z,99903.38
2023-04-08T22:48:44.839Z,99905.19
2023-04-08T22:51:15.173Z,99907.31
2023-04-08T22:53:44.049Z,99903.69
2023-04-08T22:56:12.886Z,99907.47
2023-04-08T22:58:41.732Z,99908.47
2023-04-08T23:01:17.203Z,99904.66
2023-04-08T23:03:46.514Z,99901.84
2023-04-08T23:11:01.814Z,99900.69
2023-04-08T23:13:30.646Z,99906.50
2023-04-08T23:15:59.731Z,99904.69
2023-04-08T23:18:28.629Z,99900.38
2023-04-08T23:20:59.141Z,99899.72
2023-04-08T23:23:27.979Z,99901.69
2023-04-08T23:25:56.744Z,99896.38
2023-04-08T23:28:26.989Z,99898.34
2023-04-08T23:30:55.921Z,99900.69
2023-04-08T23:33:24.790Z,99908.75
2023-04-08T23:35:53.591Z,99909.94
2023-04-08T23:38:22.402Z,99902.00
2023-04-08T23:40:52.772Z,99900.69
2023-04-08T23:43:21.590Z,99906.97
2023-04-08T23:45:55.376Z,99905.94
2023-04-08T23:48:52.454Z,99915.88
2023-04-08T23:51:47.378Z,99912.91
2023-04-08T23:54:17.410Z,99916.22
2023-04-08T23:56:47.278Z,99920.63
2023-04-08T23:59:16.212Z,99917.63
